Time;durP1;ratioP1;P1;durP2;ratioP2;P2;SDS_P1;SDS_P2;PMS_P1;PMS_P2;Temp;Humidity;BMP_temperature;BMP_pressure;BME280_temperature;BME280_humidity;BME280_pressure;Samples;Min_cycle;Max_cycle;Signal;HPM_P1;HPM_P2
2022/06/03 00:00:58;;;;;;;8.00;4.22;;;;;;;13.32;83.39;100887.13;8348326;28;20037;-60
2022/06/03 00:05:38;;;;;;;6.22;4.20;;;;;;;13.04;86.16;100882.66;8356559;28;20698;-61
2022/06/03 00:10:10;;;;;;;7.13;4.25;;;;;;;12.60;88.27;100883.28;8350580;28;20053;-61
2022/06/03 00:14:39;;;;;;;9.93;5.10;;;;;;;12.52;89.02;100880.44;8354405;28;20049;-61
2022/06/03 00:19:11;;;;;;;8.30;4.90;;;;;;;12.53;88.91;100883.00;8366130;28;20497;-62
2022/06/03 00:23:43;;;;;;;5.55;5.03;;;;;;;12.72;87.85;100884.84;8359680;28;20048;-62
2022/06/03 00:28:00;;;;;;;6.65;5.10;;;;;;;12.73;87.41;100881.13;8357039;28;20040;-62
2022/06/03 00:32:52;;;;;;;9.20;5.30;;;;;;;12.72;87.46;100880.25;8352266;28;20044;-62
2022/06/03 00:41:41;;;;;;;5.97;5.18;;;;;;;12.34;89.88;100872.19;8424711;27;20422;-60
2022/06/03 00:46:20;;;;;;;13.30;5.40;;;;;;;12.27;90.33;100875.59;8386840;27;20045;-60
2022/06/03 00:51:00;;;;;;;11.27;6.13;;;;;;;12.36;90.01;100874.75;8370989;27;20105;-60
2022/06/03 01:04:23;;;;;;;7.43;6.43;;;;;;;12.22;91.03;100867.03;8421296;27;20460;-60
2022/06/03 01:08:50;;;;;;;7.47;6.38;;;;;;;12.16;91.13;100867.59;8367354;28;20097;-60
2022/06/03 01:13:22;;;;;;;9.75;6.07;;;;;;;12.18;90.87;100865.63;8350624;28;20043;-61
2022/06/03 01:17:48;;;;;;;9.15;6.75;;;;;;;11.74;93.92;100873.25;8368972;28;20524;-61
2022/06/03 01:22:28;;;;;;;6.82;6.13;;;;;;;11.98;92.21;100858.47;8338282;28;20061;-60
2022/06/03 01:26:53;;;;;;;8.02;6.28;;;;;;;11.87;92.97;100857.59;8349587;28;20053;-60
2022/06/03 01:31:33;;;;;;;9.75;6.63;;;;;;;11.22;97.39;100865.38;8361541;28;20043;-60
2022/06/03 01:36:03;;;;;;;10.10;7.85;;;;;;;11.35;97.67;100859.72;8351407;28;20041;-60
2022/06/03 01:40:21;;;;;;;11.13;7.32;;;;;;;11.44;96.74;100854.31;8355526;28;20125;-60
2022/06/03 01:45:01;;;;;;;8.60;7.47;;;;;;;11.33;97.32;100854.44;8350889;28;20049;-60
2022/06/03 01:49:41;;;;;;;11.80;7.72;;;;;;;11.36;97.46;100850.59;8360454;28;20393;-60
2022/06/03 01:54:21;;;;;;;9.93;7.55;;;;;;;11.33;97.90;100851.75;8361013;28;20033;-60
2022/06/03 02:03:30;;;;;;;10.07;7.90;;;;;;;11.23;98.52;100837.31;8420587;27;20422;-60
2022/06/03 02:08:11;;;;;;;8.05;7.25;;;;;;;11.25;98.27;100832.63;8384008;28;20052;-62
2022/06/03 02:12:51;;;;;;;11.55;7.97;;;;;;;11.13;99.23;100828.28;8381795;28;20040;-61
2022/06/03 02:17:17;;;;;;;13.93;8.35;;;;;;;11.12;99.39;100826.59;8367160;28;20063;-61
2022/06/03 02:21:49;;;;;;;14.07;7.80;;;;;;;11.12;98.79;100818.47;8384979;28;20041;-61
2022/06/03 02:26:20;;;;;;;9.05;7.65;;;;;;;11.15;99.21;100814.63;8369808;28;20056;-61
2022/06/03 02:30:54;;;;;;;10.30;8.50;;;;;;;11.14;98.23;100821.03;8373092;28;20093;-61
2022/06/03 02:35:34;;;;;;;8.68;7.65;;;;;;;11.28;97.86;100817.94;8368587;28;20112;-61
2022/06/03 02:40:00;;;;;;;9.23;7.38;;;;;;;11.38;96.96;100816.97;8399749;28;20013;-61
2022/06/03 02:49:02;;;;;;;10.73;7.30;;;;;;;11.17;97.44;100797.28;8407479;27;20405;-60
2022/06/03 02:53:40;;;;;;;9.48;7.13;;;;;;;11.13;98.20;100806.66;8387278;28;20040;-62
2022/06/03 02:58:11;;;;;;;11.00;7.55;;;;;;;11.01;98.41;100802.34;8382937;28;20047;-61
2022/06/03 03:02:51;;;;;;;8.95;7.85;;;;;;;10.98;99.31;100807.19;8394899;28;20032;-61
2022/06/03 03:07:15;;;;;;;15.48;7.32;;;;;;;10.88;99.88;100809.81;8372843;28;20033;-61
2022/06/03 03:11:56;;;;;;;10.15;7.82;;;;;;;10.60;100.00;100818.66;8382764;28;20052;-60
2022/06/03 03:16:36;;;;;;;10.65;7.75;;;;;;;10.62;99.42;100813.09;8374663;28;20401;-60
2022/06/03 03:21:03;;;;;;;19.42;7.68;;;;;;;10.40;100.00;100819.50;8382326;28;20052;-60
2022/06/03 03:34:19;;;;;;;12.07;8.88;;;;;;;9.87;100.00;100824.06;8410159;27;20385;-62
2022/06/03 03:38:59;;;;;;;10.85;7.97;;;;;;;10.03;100.00;100818.19;8385895;28;20040;-62
2022/06/03 03:43:39;;;;;;;8.48;7.65;;;;;;;10.25;100.00;100814.56;8398785;28;20067;-60
2022/06/03 03:48:19;;;;;;;15.43;7.72;;;;;;;10.33;100.00;100812.91;8377659;28;20397;-62
2022/06/03 04:01:51;;;;;;;11.57;7.68;;;;;;;10.48;100.00;100789.97;8419803;27;20447;-62
2022/06/03 04:06:26;;;;;;;7.93;7.13;;;;;;;10.49;100.00;100790.84;8371922;28;20041;-60
2022/06/03 04:11:06;;;;;;;7.40;6.10;;;;;;;10.68;100.00;100794.50;8386709;28;20479;-62
2022/06/03 04:15:37;;;;;;;7.43;6.10;;;;;;;10.90;98.39;100783.50;8389603;28;20044;-62
2022/06/03 04:24:28;;;;;;;6.63;5.97;;;;;;;11.35;97.29;100784.78;8388018;27;20422;-60
2022/06/03 04:29:34;;;;;;;9.48;6.10;;;;;;;11.64;95.91;100780.31;8346990;28;20048;-62
2022/06/03 04:43:25;;;;;;;7.30;5.00;;;;;;;12.44;91.99;100785.41;8322525;27;20466;-62
2022/06/03 04:48:05;;;;;;;7.57;5.82;;;;;;;12.76;91.50;100792.16;8317965;28;20598;-61
2022/06/03 04:52:43;;;;;;;5.20;4.70;;;;;;;12.94;90.31;100784.09;8302990;28;24309;-61
2022/06/03 04:57:20;;;;;;;6.32;5.57;;;;;;;13.06;90.97;100793.81;8311943;28;20042;-61
2022/06/03 05:02:00;;;;;;;6.55;4.82;;;;;;;13.28;89.97;100790.69;8302067;28;20144;-61
2022/06/03 05:06:40;;;;;;;5.30;4.80;;;;;;;13.49;88.88;100785.84;8318630;28;20057;-61
2022/06/03 05:11:20;;;;;;;5.93;5.32;;;;;;;13.54;89.69;100784.38;8293351;28;20458;-61
2022/06/03 05:16:00;;;;;;;7.32;4.82;;;;;;;14.03;85.70;100774.00;8283233;28;20057;-61
2022/06/03 05:20:19;;;;;;;7.25;4.95;;;;;;;14.46;83.79;100772.19;8291675;28;20144;-61
2022/06/03 05:24:46;;;;;;;5.93;4.03;;;;;;;14.75;83.50;100760.94;8309186;28;20138;-61
2022/06/03 05:29:18;;;;;;;5.40;4.82;;;;;;;15.03;82.00;100763.31;8308739;28;20498;-61
2022/06/03 05:33:59;;;;;;;6.82;4.00;;;;;;;15.20;80.78;100754.22;8326761;28;20043;-61
2022/06/03 05:38:40;;;;;;;4.25;3.85;;;;;;;14.90;78.93;100765.66;8297182;28;20424;-61
2022/06/03 05:47:27;;;;;;;4.45;3.75;;;;;;;15.31;79.83;100748.44;8396334;28;20469;-61
2022/06/03 05:52:07;;;;;;;6.40;4.53;;;;;;;15.65;78.87;100751.16;8394330;28;20040;-61
2022/06/03 05:56:47;;;;;;;6.63;3.33;;;;;;;16.01;78.71;100747.06;8392569;28;20512;-61
2022/06/03 06:01:20;;;;;;;6.38;4.15;;;;;;;16.07;77.63;100753.75;8395057;28;20091;-61
2022/06/03 06:05:37;;;;;;;5.65;3.75;;;;;;;16.31;76.28;100753.75;8389312;28;20404;-61
2022/06/03 06:10:04;;;;;;;5.75;3.80;;;;;;;16.73;75.54;100748.91;8389444;28;20037;-61
2022/06/03 06:14:45;;;;;;;7.13;4.15;;;;;;;17.05;74.27;100733.28;8392082;28;20128;-61
2022/06/03 06:19:04;;;;;;;8.40;4.30;;;;;;;17.29;72.83;100740.50;8404508;28;20020;-61
2022/06/03 06:23:27;;;;;;;8.23;3.85;;;;;;;17.49;72.45;100730.88;8398888;28;20043;-61
2022/06/03 06:28:07;;;;;;;7.53;3.40;;;;;;;17.90;71.79;100745.97;8390984;28;20500;-61
2022/06/03 06:32:47;;;;;;;4.80;3.15;;;;;;;17.82;70.25;100748.78;8384620;28;20057;-61
2022/06/03 06:37:27;;;;;;;8.60;3.00;;;;;;;18.02;70.54;100741.78;8390220;28;20102;-61
2022/06/03 06:41:57;;;;;;;3.63;2.40;;;;;;;18.20;68.45;100742.31;8392958;28;20440;-61
2022/06/03 06:46:20;;;;;;;6.30;2.22;;;;;;;18.40;67.33;100746.28;8395116;28;20048;-61
2022/06/03 06:50:26;;;;;;;4.68;2.40;;;;;;;18.33;68.53;100752.66;8370136;27;20041;-61
2022/06/03 06:55:06;;;;;;;7.50;2.63;;;;;;;18.85;67.73;100759.84;8368367;28;20443;-61
2022/06/03 06:59:11;;;;;;;5.60;2.63;;;;;;;19.19;67.80;100754.66;8375477;28;20090;-62
2022/06/03 07:03:21;;;;;;;6.63;2.00;;;;;;;19.70;63.09;100754.72;8367766;28;20504;-62
2022/06/03 07:07:31;;;;;;;3.22;1.50;;;;;;;19.46;61.53;100748.50;8379152;28;20036;-62
2022/06/03 07:11:55;;;;;;;2.78;1.35;;;;;;;19.79;62.22;100739.81;8376412;28;20041;-62
2022/06/03 07:16:15;;;;;;;;;;;;;;;20.30;61.64;100742.25;8376470;28;20043;-61
2022/06/03 07:20:27;;;;;;;5.72;1.40;;;;;;;20.22;59.61;100739.66;8344649;28;19964;-61
2022/06/03 07:24:37;;;;;;;4.38;1.40;;;;;;;20.22;59.90;100725.09;8371239;28;20493;-61
2022/06/03 07:28:49;;;;;;;1.65;1.20;;;;;;;19.98;60.38;100719.97;8371537;28;20453;-61
2022/06/03 07:33:14;;;;;;;3.40;1.70;;;;;;;20.16;60.52;100717.63;8357715;28;20040;-61
2022/06/03 07:37:24;;;;;;;1.73;0.95;;;;;;;20.47;59.63;100709.88;8371614;28;20029;-61
2022/06/03 07:41:42;;;;;;;2.65;1.02;;;;;;;20.71;57.95;100717.66;8370773;28;20048;-61
2022/06/03 07:45:52;;;;;;;2.35;1.40;;;;;;;20.73;57.23;100701.81;8377179;28;20045;-62
2022/06/03 07:49:57;;;;;;;3.30;1.58;;;;;;;20.74;59.06;100706.28;8368667;28;20041;-62
2022/06/03 07:58:29;;;;;;;2.47;1.40;;;;;;;21.18;57.00;100682.00;8430495;27;20452;-60
2022/06/03 08:02:30;;;;;;;5.43;1.15;;;;;;;21.53;55.98;100664.34;8431465;27;20493;-60
2022/06/03 08:11:00;;;;;;;2.78;1.40;;;;;;;21.65;55.85;100672.84;8400290;27;20052;-61
2022/06/03 08:15:20;;;;;;;3.47;1.05;;;;;;;21.89;55.28;100664.88;8424678;27;20538;-61
2022/06/03 08:19:27;;;;;;;5.13;1.30;;;;;;;21.92;54.90;100667.19;8405470;27;20467;-61
2022/06/03 08:23:31;;;;;;;4.97;1.10;;;;;;;22.32;55.22;100662.56;8412669;28;20040;-62
2022/06/03 08:27:35;;;;;;;2.58;1.00;;;;;;;22.33;54.52;100667.88;8427507;28;20511;-62
2022/06/03 08:31:37;;;;;;;1.60;1.10;;;;;;;22.03;54.49;100672.09;8426916;28;20032;-62
2022/06/03 08:35:43;;;;;;;3.75;1.30;;;;;;;22.41;54.29;100664.88;8425180;28;20051;-62
2022/06/03 08:39:46;;;;;;;4.35;2.10;;;;;;;22.72;54.71;100651.28;8427932;28;20412;-62
2022/06/03 08:44:22;;;;;;;6.35;2.00;;;;;;;23.14;55.20;100664.50;8429352;28;20036;-62
2022/06/03 08:48:29;;;;;;;6.85;2.22;;;;;;;23.12;55.25;100654.78;8423686;28;20509;-62
2022/06/03 08:52:40;;;;;;;3.95;2.50;;;;;;;23.09;54.93;100661.56;8426965;28;20039;-62
2022/06/03 08:56:45;;;;;;;5.25;2.65;;;;;;;23.02;55.45;100663.50;8421425;28;20056;-62
2022/06/03 09:00:55;;;;;;;4.45;3.25;;;;;;;23.38;54.15;100662.94;8420091;28;20491;-62
2022/06/03 09:05:04;;;;;;;7.70;3.45;;;;;;;23.36;53.48;100669.78;8426465;28;20392;-62
2022/06/03 09:09:15;;;;;;;4.72;2.92;;;;;;;23.58;55.60;100673.91;8404316;28;20408;-62
2022/06/03 09:13:24;;;;;;;4.60;2.75;;;;;;;23.74;52.55;100660.41;8403465;28;20024;-62
2022/06/03 09:18:02;;;;;;;3.83;2.83;;;;;;;23.81;52.27;100663.97;8406320;28;20040;-61
2022/06/03 09:22:11;;;;;;;5.30;2.72;;;;;;;24.33;52.13;100669.13;8405252;28;20067;-61
2022/06/03 09:26:20;;;;;;;3.85;2.38;;;;;;;24.16;49.92;100664.38;8403280;28;20062;-61
2022/06/03 09:30:29;;;;;;;4.82;1.60;;;;;;;24.61;51.52;100671.44;8397124;28;20557;-61
2022/06/03 09:34:40;;;;;;;9.02;2.53;;;;;;;24.59;49.14;100656.97;8398634;28;20508;-61
2022/06/03 09:38:47;;;;;;;5.53;2.20;;;;;;;24.41;49.32;100648.63;8403808;28;20108;-61
2022/06/03 09:43:00;;;;;;;3.42;2.38;;;;;;;24.26;49.08;100645.38;8407258;28;20040;-61
2022/06/03 09:47:05;;;;;;;3.35;2.03;;;;;;;24.40;49.45;100641.44;8406718;28;20307;-61
2022/06/03 09:51:10;;;;;;;6.05;1.20;;;;;;;24.48;50.13;100643.88;8397125;28;20040;-61
2022/06/03 09:55:24;;;;;;;1.50;0.82;;;;;;;24.74;49.01;100638.94;8405464;28;20501;-61
2022/06/03 09:59:26;;;;;;;1.58;0.93;;;;;;;25.10;48.50;100640.03;8395589;28;20057;-62
2022/06/03 10:03:27;;;;;;;2.72;1.10;;;;;;;25.39;49.67;100648.41;8405180;28;20036;-61
2022/06/03 10:07:27;;;;;;;2.53;1.23;;;;;;;26.70;46.48;100642.47;8406115;28;20037;-61
2022/06/03 10:13:00;;;;;;;3.95;0.70;;;;;;;27.05;44.77;100633.25;8404649;28;20036;-61
2022/06/03 10:15:56;;;;;;;6.07;1.15;;;;;;;25.49;46.96;100623.78;8399102;28;20063;-61
2022/06/03 10:19:56;;;;;;;3.55;1.13;;;;;;;25.93;47.48;100637.19;8394963;28;20132;-61
2022/06/03 10:24:02;;;;;;;2.95;0.90;;;;;;;25.91;47.60;100630.16;8387488;28;20040;-61
2022/06/03 10:28:05;;;;;;;4.75;1.27;;;;;;;27.12;46.57;100631.19;8399067;28;20119;-61
2022/06/03 10:32:07;;;;;;;2.23;0.83;;;;;;;28.28;45.12;100624.00;8399765;28;20045;-60
2022/06/03 10:36:08;;;;;;;2.88;0.98;;;;;;;28.12;45.51;100624.84;8403448;28;20860;-60
2022/06/03 10:40:08;;;;;;;1.67;0.88;;;;;;;28.30;44.32;100617.09;8404147;28;20066;-60
2022/06/03 10:44:13;;;;;;;2.88;0.90;;;;;;;29.15;42.22;100609.19;8402531;28;20445;-60
2022/06/03 10:48:24;;;;;;;1.92;0.98;;;;;;;30.04;41.06;100614.06;8402227;28;20040;-60
2022/06/03 11:01:39;;;;;;;1.50;1.23;;;;;;;28.37;44.10;100606.66;8366985;28;20049;-60
2022/06/03 11:05:40;;;;;;;1.77;1.08;;;;;;;27.85;44.35;100604.31;8365464;28;20055;-61
2022/06/03 11:09:53;;;;;;;2.77;1.20;;;;;;;27.35;45.54;100583.94;8398759;28;20390;-60
2022/06/03 11:13:54;;;;;;;5.18;1.60;;;;;;;27.62;44.82;100585.00;8403273;28;20040;-61
2022/06/03 11:17:54;;;;;;;2.40;1.53;;;;;;;27.57;44.10;100587.69;8406389;28;20042;-61
2022/06/03 11:22:17;;;;;;;5.63;1.70;;;;;;;28.22;44.42;100574.94;8403363;28;20287;-61
2022/06/03 11:26:17;;;;;;;3.25;1.25;;;;;;;29.45;43.15;100558.53;8391819;28;20519;-61
2022/06/03 11:30:49;;;;;;;3.20;1.30;;;;;;;29.94;42.86;100558.22;8399688;28;20032;-61
2022/06/03 11:34:56;;;;;;;3.10;1.20;;;;;;;31.20;40.99;100547.84;8395292;28;20155;-61
2022/06/03 11:39:03;;;;;;;3.88;1.35;;;;;;;31.98;40.21;100537.09;8401634;28;20049;-61
2022/06/03 11:43:10;;;;;;;3.13;1.15;;;;;;;32.46;39.21;100538.47;8400115;28;20044;-61
2022/06/03 11:47:22;;;;;;;3.70;1.40;;;;;;;32.41;38.79;100530.06;8402670;28;20037;-61
2022/06/03 11:51:24;;;;;;;2.17;1.20;;;;;;;31.84;39.82;100524.78;8403198;28;20515;-61
2022/06/03 11:55:29;;;;;;;3.15;1.25;;;;;;;30.14;42.05;100530.50;8400929;28;20501;-61
2022/06/03 11:59:53;;;;;;;2.20;1.50;;;;;;;30.40;40.85;100518.41;8397655;28;20045;-61
2022/06/03 12:04:11;;;;;;;2.53;1.30;;;;;;;30.41;41.38;100519.25;8400631;28;20060;-61
2022/06/03 12:08:28;;;;;;;2.70;1.40;;;;;;;28.71;43.93;100510.03;8397235;28;20066;-61
2022/06/03 12:13:43;;;;;;;3.53;1.10;;;;;;;27.36;46.58;100519.81;8401353;28;20032;-61
2022/06/03 12:26:06;;;;;;;3.30;1.50;;;;;;;26.37;49.21;100525.75;8405977;27;20388;-61
2022/06/03 12:34:27;;;;;;;1.50;1.05;;;;;;;26.55;48.02;100511.72;8387099;27;21096;-60
2022/06/03 12:42:40;;;;;;;3.63;1.00;;;;;;;26.87;48.52;100514.06;8395355;27;20860;-60
2022/06/03 12:46:43;;;;;;;1.70;1.27;;;;;;;26.92;48.94;100500.31;8392575;28;20040;-60
2022/06/03 12:51:18;;;;;;;1.58;1.02;;;;;;;26.84;48.05;100505.16;8367036;28;20044;-61
2022/06/03 12:55:26;;;;;;;2.63;1.33;;;;;;;26.57;48.03;100509.56;8378942;28;20063;-60
2022/06/03 12:59:36;;;;;;;3.70;1.20;;;;;;;26.67;48.88;100509.81;8389543;28;20041;-60
2022/06/03 13:08:05;;;;;;;4.95;1.20;;;;;;;26.67;47.60;100504.25;8420052;27;20422;-60
2022/06/03 13:12:36;;;;;;;4.72;1.13;;;;;;;26.70;47.66;100509.31;8408377;28;20068;-60
2022/06/03 13:16:41;;;;;;;6.03;1.05;;;;;;;27.08;48.42;100510.63;8419661;28;20040;-60
2022/06/03 13:20:46;;;;;;;2.92;1.05;;;;;;;27.05;49.01;100508.34;8393602;28;20040;-60
2022/06/03 13:25:23;;;;;;;1.65;1.00;;;;;;;27.16;46.53;100507.44;8394929;28;20044;-60
2022/06/03 13:30:01;;;;;;;4.20;1.08;;;;;;;27.29;46.14;100510.78;8399793;28;20044;-60
2022/06/03 13:38:27;;;;;;;2.78;1.23;;;;;;;27.20;47.23;100500.31;8317878;28;20434;-61
2022/06/03 13:43:03;;;;;;;2.90;1.20;;;;;;;27.24;46.74;100495.94;8278896;28;20093;-61
2022/06/03 13:47:11;;;;;;;3.25;1.00;;;;;;;27.49;47.22;100499.19;8289715;28;20120;-61
2022/06/03 13:51:37;;;;;;;3.80;1.40;;;;;;;26.86;47.02;100484.66;8285590;28;20125;-62
2022/06/03 14:00:16;;;;;;;3.03;1.10;;;;;;;26.87;47.45;100483.56;8404764;27;20445;-60
2022/06/03 14:04:23;;;;;;;3.28;1.10;;;;;;;27.34;47.71;100487.81;8372653;28;20045;-60
2022/06/03 14:08:35;;;;;;;3.05;1.30;;;;;;;26.79;47.28;100485.63;8385713;28;20037;-60
2022/06/03 14:12:46;;;;;;;2.78;1.40;;;;;;;26.74;48.40;100476.34;8388020;28;20348;-60
2022/06/03 14:16:58;;;;;;;3.38;1.35;;;;;;;27.09;49.33;100490.94;8387578;28;20041;-60
2022/06/03 14:20:58;;;;;;;3.38;1.20;;;;;;;26.70;49.45;100478.78;8387094;28;20511;-60
2022/06/03 14:25:21;;;;;;;3.53;1.60;;;;;;;26.98;48.69;100482.69;8387849;28;20429;-60
2022/06/03 14:29:31;;;;;;;5.47;1.42;;;;;;;27.43;49.10;100486.31;8382843;28;20056;-60
2022/06/03 14:33:39;;;;;;;2.17;1.20;;;;;;;27.64;48.66;100477.22;8385428;28;20356;-60
2022/06/03 14:37:46;;;;;;;8.38;1.60;;;;;;;27.59;48.09;100474.34;8381384;28;20056;-60
2022/06/03 14:41:53;;;;;;;3.30;1.42;;;;;;;27.52;49.26;100473.69;8381482;28;20044;-60
2022/06/03 14:45:59;;;;;;;3.88;1.48;;;;;;;27.49;48.68;100479.75;8382910;28;20029;-60
2022/06/03 14:50:07;;;;;;;3.90;1.52;;;;;;;27.21;48.90;100480.63;8388799;28;20048;-60
2022/06/03 14:54:12;;;;;;;4.78;1.55;;;;;;;27.27;49.71;100488.00;8374162;28;20045;-60
2022/06/03 14:58:25;;;;;;;4.45;1.52;;;;;;;27.40;49.41;100486.81;8385098;28;20110;-60
2022/06/03 15:02:37;;;;;;;2.87;1.30;;;;;;;27.28;48.71;100488.81;8385901;28;20611;-60
2022/06/03 15:06:45;;;;;;;2.35;1.45;;;;;;;27.16;49.57;100480.50;8389627;28;20044;-60
2022/06/03 15:11:00;;;;;;;5.68;1.58;;;;;;;27.20;51.00;100486.41;8362628;28;20362;-61
2022/06/03 15:15:03;;;;;;;2.88;1.42;;;;;;;27.08;51.85;100477.31;8354019;28;20036;-60
2022/06/03 15:19:03;;;;;;;4.50;1.50;;;;;;;27.09;50.01;100467.88;8361451;28;20045;-60
2022/06/03 15:23:05;;;;;;;2.92;1.45;;;;;;;26.98;51.14;100466.03;8360433;28;20577;-61
2022/06/03 15:27:06;;;;;;;1.92;1.20;;;;;;;27.02;50.89;100465.28;8361107;28;20058;-60
2022/06/03 15:31:15;;;;;;;2.20;1.75;;;;;;;27.13;50.75;100469.91;8364101;28;20110;-60
2022/06/03 15:35:27;;;;;;;2.97;1.67;;;;;;;26.98;52.93;100466.84;8362792;28;20454;-60
2022/06/03 15:39:33;;;;;;;2.42;1.83;;;;;;;26.84;53.21;100455.19;8362212;28;20048;-60
2022/06/03 15:43:43;;;;;;;3.22;1.60;;;;;;;26.90;53.38;100460.84;8360663;28;20060;-60
2022/06/03 15:47:43;;;;;;;2.60;1.40;;;;;;;26.95;53.29;100460.97;8366981;28;20098;-60
2022/06/03 15:51:47;;;;;;;3.43;1.40;;;;;;;26.65;53.04;100462.03;8352996;28;20041;-61
2022/06/03 15:56:03;;;;;;;3.28;1.33;;;;;;;26.42;52.85;100462.09;8382578;28;20382;-60
2022/06/03 16:00:13;;;;;;;3.63;1.42;;;;;;;26.34;52.66;100464.38;8358846;28;20524;-61
2022/06/03 16:04:31;;;;;;;2.60;1.50;;;;;;;26.26;53.80;100457.28;8370293;28;20041;-60
2022/06/03 16:08:47;;;;;;;2.30;1.40;;;;;;;26.47;54.02;100450.25;8370513;28;20424;-61
2022/06/03 16:13:27;;;;;;;5.68;1.38;;;;;;;26.42;52.93;100448.22;8376308;28;20076;-61
2022/06/03 16:18:07;;;;;;;5.15;2.00;;;;;;;26.24;53.05;100448.38;8368509;28;20056;-61
2022/06/03 16:22:37;;;;;;;7.15;1.60;;;;;;;26.12;53.34;100447.56;8358385;28;20497;-61
2022/06/03 16:26:41;;;;;;;4.78;1.40;;;;;;;25.90;53.90;100454.78;8373679;28;20107;-61
2022/06/03 16:30:47;;;;;;;;;;;;;;;25.75;53.88;100459.94;8374681;28;20049;-61
2022/06/03 16:35:15;;;;;;;2.88;1.27;;;;;;;25.62;54.11;100454.66;8358927;28;20023;-61
2022/06/03 16:39:30;;;;;;;3.80;1.48;;;;;;;25.62;55.01;100465.72;8371043;28;20046;-61
2022/06/03 16:43:48;;;;;;;3.63;1.60;;;;;;;25.65;54.25;100458.84;8368312;28;20037;-61
2022/06/03 16:47:53;;;;;;;4.43;1.52;;;;;;;25.39;54.68;100454.63;8362015;28;20091;-61
2022/06/03 16:56:08;;;;;;;2.17;1.10;;;;;;;25.30;53.97;100456.00;8348266;27;20455;-60
2022/06/03 17:04:29;;;;;;;2.97;1.15;;;;;;;25.37;53.90;100448.47;8421877;27;20431;-60
2022/06/03 17:08:50;;;;;;;2.67;1.27;;;;;;;25.41;54.21;100446.91;8426949;28;20523;-60
2022/06/03 17:12:52;;;;;;;2.67;1.00;;;;;;;25.34;53.92;100457.25;8422613;28;20372;-60
2022/06/03 17:17:01;;;;;;;3.47;1.30;;;;;;;25.55;54.99;100464.16;8409010;28;20387;-61
2022/06/03 17:21:35;;;;;;;4.20;0.90;;;;;;;25.39;53.69;100457.38;8426579;28;20032;-61
2022/06/03 17:25:40;;;;;;;1.48;1.08;;;;;;;25.27;54.25;100453.72;8407649;28;20051;-61
2022/06/03 17:30:04;;;;;;;2.22;1.15;;;;;;;25.23;54.73;100455.28;8416372;28;20105;-61
2022/06/03 17:34:33;;;;;;;1.50;1.15;;;;;;;25.08;54.69;100460.41;8405516;28;20052;-61
2022/06/03 17:38:50;;;;;;;2.08;1.30;;;;;;;24.99;55.11;100464.59;8397417;28;20047;-60
2022/06/03 17:43:30;;;;;;;2.83;1.38;;;;;;;24.85;55.17;100457.53;8384914;28;20403;-61
2022/06/03 17:56:48;;;;;;;1.40;1.27;;;;;;;24.66;55.78;100450.38;8358566;28;20468;-60
2022/06/03 18:01:05;;;;;;;2.35;1.20;;;;;;;24.47;55.82;100465.28;8364445;28;20557;-61
2022/06/03 18:05:17;;;;;;;2.00;1.10;;;;;;;24.37;56.29;100456.69;8384573;28;20044;-61
2022/06/03 18:09:45;;;;;;;1.63;1.23;;;;;;;24.34;56.29;100468.22;8388454;28;20033;-61
2022/06/03 18:13:50;;;;;;;1.83;1.10;;;;;;;24.25;56.55;100461.28;8362012;28;20045;-61
2022/06/03 18:18:06;;;;;;;1.38;1.20;;;;;;;24.16;57.41;100468.19;8393021;28;20036;-61
2022/06/03 18:22:35;;;;;;;2.60;1.40;;;;;;;24.06;56.85;100467.91;8379423;28;20036;-62
2022/06/03 18:27:03;;;;;;;3.05;1.30;;;;;;;23.98;57.03;100466.28;8377881;28;20630;-61
2022/06/03 18:31:43;;;;;;;2.17;1.17;;;;;;;23.84;56.85;100470.19;8362255;28;20045;-61
2022/06/03 18:40:19;;;;;;;1.50;1.15;;;;;;;23.63;57.05;100475.31;8387059;27;20501;-61
2022/06/03 18:45:00;;;;;;;1.77;1.20;;;;;;;23.54;57.76;100482.19;8372446;28;20449;-61
2022/06/03 18:49:37;;;;;;;2.20;1.25;;;;;;;23.40;57.35;100477.81;8386384;28;20089;-61
2022/06/03 18:58:13;;;;;;;1.33;1.13;;;;;;;23.23;57.70;100487.72;8424750;27;20406;-61
2022/06/03 19:02:24;;;;;;;;;;;;;;;23.17;57.88;100493.03;8401610;28;20161;-61
2022/06/03 19:06:52;;;;;;;2.40;1.30;;;;;;;23.14;58.15;100476.94;8378856;28;19917;-61
2022/06/03 19:11:06;;;;;;;6.35;2.00;;;;;;;22.98;59.14;100484.88;8372353;28;20127;-61
2022/06/03 19:19:37;;;;;;;2.20;1.73;;;;;;;22.83;59.22;100492.59;8408930;27;20410;-61
2022/06/03 19:24:09;;;;;;;2.40;1.40;;;;;;;22.78;59.58;100500.72;8361194;28;20049;-60
2022/06/03 19:28:14;;;;;;;2.15;1.80;;;;;;;22.74;59.68;100500.28;8388772;27;20048;-60
2022/06/03 19:32:21;;;;;;;;;;;;;;;22.67;60.06;100505.00;8372505;28;20044;-61
2022/06/03 19:36:50;;;;;;;2.78;1.50;;;;;;;22.57;60.60;100510.09;8391222;28;20457;-61
2022/06/03 19:41:00;;;;;;;4.63;1.40;;;;;;;22.53;60.68;100513.53;8347461;28;20036;-61
2022/06/03 19:45:35;;;;;;;2.22;1.55;;;;;;;22.43;61.38;100516.72;8383966;28;20458;-61
2022/06/03 19:50:56;;;;;;;3.28;1.50;;;;;;;22.35;62.04;100532.66;8365546;28;20095;-61
2022/06/03 19:54:56;;;;;;;5.70;2.20;;;;;;;22.34;61.96;100531.78;8362271;28;20029;-61
2022/06/03 19:59:23;;;;;;;5.35;1.60;;;;;;;22.28;62.21;100537.31;8371614;28;20040;-61
2022/06/03 20:07:54;;;;;;;2.08;1.73;;;;;;;22.12;62.54;100519.34;8350700;27;20423;-60
2022/06/03 20:13:32;;;;;;;5.28;1.80;;;;;;;22.09;63.14;100539.06;8358439;28;20140;-60
2022/06/03 20:16:22;;;;;;;2.47;1.90;;;;;;;22.07;63.01;100546.69;8332009;28;20064;-60
2022/06/03 20:20:32;;;;;;;4.88;1.73;;;;;;;22.00;63.26;100558.75;8360991;28;20060;-61
2022/06/03 20:24:49;;;;;;;2.55;1.95;;;;;;;21.99;63.69;100570.84;8353662;28;20033;-61
2022/06/03 20:29:10;;;;;;;5.25;1.75;;;;;;;21.87;64.13;100567.91;8355952;28;20493;-61
2022/06/03 20:33:33;;;;;;;1.88;1.75;;;;;;;21.81;64.18;100568.75;8353369;28;20042;-61
2022/06/03 20:42:34;;;;;;;4.35;2.00;;;;;;;21.66;64.97;100565.31;8365234;27;20840;-61
2022/06/03 20:51:03;;;;;;;3.05;1.92;;;;;;;21.62;64.70;100564.03;8435400;27;20387;-61
2022/06/03 20:55:26;;;;;;;3.40;1.95;;;;;;;21.52;64.95;100558.09;8400826;28;20063;-61
2022/06/03 20:59:30;;;;;;;3.47;2.40;;;;;;;21.41;64.95;100567.00;8399446;28;20037;-61
2022/06/03 21:12:51;;;;;;;6.38;2.65;;;;;;;21.43;64.51;100564.03;8396890;28;20041;-61
2022/06/03 21:16:52;;;;;;;4.00;2.53;;;;;;;21.42;64.66;100570.56;8355675;28;20090;-61
2022/06/03 21:21:15;;;;;;;2.42;2.05;;;;;;;21.29;64.97;100565.91;8356142;28;20087;-61
2022/06/03 21:25:15;;;;;;;4.07;2.13;;;;;;;21.29;64.98;100568.66;8361632;28;20103;-61
2022/06/03 21:29:16;;;;;;;2.85;2.40;;;;;;;21.23;65.16;100578.56;8366934;28;20041;-61
2022/06/03 21:33:23;;;;;;;3.40;2.80;;;;;;;21.22;65.34;100584.28;8368296;28;20068;-61
2022/06/03 21:37:50;;;;;;;3.47;2.20;;;;;;;21.07;65.61;100586.34;8389594;28;20139;-61
2022/06/03 21:41:51;;;;;;;2.83;2.00;;;;;;;20.98;66.19;100587.59;8356021;28;20029;-62
2022/06/03 21:46:31;;;;;;;5.38;2.47;;;;;;;20.78;66.58;100592.13;8368480;28;20040;-61
2022/06/03 21:50:45;;;;;;;2.72;2.53;;;;;;;20.35;69.47;100607.97;8357877;28;20045;-61
2022/06/03 21:55:26;;;;;;;2.78;2.42;;;;;;;20.08;71.12;100607.91;8368212;28;20060;-61
2022/06/03 22:03:47;;;;;;;3.25;2.70;;;;;;;20.02;71.15;100603.22;8332123;27;20422;-61
2022/06/03 22:07:49;;;;;;;4.03;2.95;;;;;;;20.02;70.78;100611.47;8292645;28;20060;-61
2022/06/03 22:12:50;;;;;;;4.05;2.38;;;;;;;19.94;70.68;100612.47;8302852;28;20026;-61
2022/06/03 22:16:10;;;;;;;4.72;2.70;;;;;;;19.97;70.53;100608.50;8292040;28;20121;-61
2022/06/03 22:20:14;;;;;;;5.75;2.53;;;;;;;19.89;70.47;100616.84;8304860;28;20045;-61
2022/06/03 22:24:15;;;;;;;3.72;2.85;;;;;;;19.65;73.04;100617.25;8306184;28;20046;-61
2022/06/03 22:28:28;;;;;;;5.97;3.40;;;;;;;19.22;75.14;100611.72;8287000;28;20052;-61
2022/06/03 22:32:39;;;;;;;6.65;3.63;;;;;;;19.14;75.84;100611.84;8299838;28;20034;-61
2022/06/03 22:36:50;;;;;;;6.65;4.28;;;;;;;18.97;75.66;100610.38;8291550;28;20376;-61
2022/06/03 22:41:16;;;;;;;7.55;4.85;;;;;;;18.68;76.76;100604.94;8295624;28;20042;-61
2022/06/03 22:45:16;;;;;;;7.07;4.95;;;;;;;18.59;77.56;100603.34;8297644;28;20034;-61